sensor_id;sensor_type;location;lat;lon;timestamp;P1;durP1;ratioP1;P2;durP2;ratioP2
18274;SDS011;19470;49.322;7.218;2023-12-20T00:00:34;11.20;;;6.97;;
18274;SDS011;19470;49.322;7.218;2023-12-20T00:03:02;10.25;;;7.38;;
18274;SDS011;19470;49.322;7.218;2023-12-20T00:05:29;10.68;;;7.60;;
18274;SDS011;19470;49.322;7.218;2023-12-20T00:07:59;11.93;;;7.32;;
18274;SDS011;19470;49.322;7.218;2023-12-20T00:10:26;11.40;;;7.65;;
18274;SDS011;19470;49.322;7.218;2023-12-20T00:12:52;10.97;;;7.63;;
18274;SDS011;19470;49.322;7.218;2023-12-20T00:15:19;9.77;;;6.93;;
18274;SDS011;19470;49.322;7.218;2023-12-20T00:17:45;10.20;;;7.43;;
18274;SDS011;19470;49.322;7.218;2023-12-20T00:20:12;10.35;;;7.22;;
18274;SDS011;19470;49.322;7.218;2023-12-20T00:22:39;11.90;;;7.57;;
18274;SDS011;19470;49.322;7.218;2023-12-20T00:25:07;10.85;;;7.70;;
18274;SDS011;19470;49.322;7.218;2023-12-20T00:27:34;11.75;;;7.63;;
18274;SDS011;19470;49.322;7.218;2023-12-20T00:30:00;10.85;;;7.53;;
18274;SDS011;19470;49.322;7.218;2023-12-20T00:32:27;10.65;;;7.78;;
18274;SDS011;19470;49.322;7.218;2023-12-20T00:34:53;14.40;;;8.35;;
18274;SDS011;19470;49.322;7.218;2023-12-20T00:37:21;13.52;;;7.63;;
18274;SDS011;19470;49.322;7.218;2023-12-20T00:39:47;12.38;;;8.15;;
18274;SDS011;19470;49.322;7.218;2023-12-20T00:42:15;12.35;;;8.20;;
18274;SDS011;19470;49.322;7.218;2023-12-20T00:44:42;10.55;;;7.35;;
18274;SDS011;19470;49.322;7.218;2023-12-20T00:47:08;14.25;;;8.13;;
18274;SDS011;19470;49.322;7.218;2023-12-20T00:49:35;13.45;;;7.45;;
18274;SDS011;19470;49.322;7.218;2023-12-20T00:52:01;12.07;;;7.57;;
18274;SDS011;19470;49.322;7.218;2023-12-20T00:54:28;11.45;;;7.13;;
18274;SDS011;19470;49.322;7.218;2023-12-20T00:56:55;9.55;;;6.82;;
18274;SDS011;19470;49.322;7.218;2023-12-20T00:59:23;10.13;;;6.90;;
18274;SDS011;19470;49.322;7.218;2023-12-20T01:01:50;9.85;;;7.03;;
18274;SDS011;19470;49.322;7.218;2023-12-20T01:04:16;11.68;;;7.88;;
18274;SDS011;19470;49.322;7.218;2023-12-20T01:06:43;11.73;;;7.65;;
18274;SDS011;19470;49.322;7.218;2023-12-20T01:09:09;11.27;;;7.90;;
18274;SDS011;19470;49.322;7.218;2023-12-20T01:11:36;12.88;;;7.75;;
18274;SDS011;19470;49.322;7.218;2023-12-20T01:14:02;10.80;;;7.40;;
18274;SDS011;19470;49.322;7.218;2023-12-20T01:16:30;14.15;;;8.82;;
18274;SDS011;19470;49.322;7.218;2023-12-20T01:18:56;11.57;;;7.32;;
18274;SDS011;19470;49.322;7.218;2023-12-20T01:21:23;12.45;;;8.02;;
18274;SDS011;19470;49.322;7.218;2023-12-20T01:23:50;11.77;;;7.65;;
18274;SDS011;19470;49.322;7.218;2023-12-20T01:26:17;15.55;;;8.85;;
18274;SDS011;19470;49.322;7.218;2023-12-20T01:28:43;14.20;;;7.93;;
18274;SDS011;19470;49.322;7.218;2023-12-20T01:31:10;12.65;;;7.93;;
18274;SDS011;19470;49.322;7.218;2023-12-20T01:33:38;11.35;;;7.18;;
18274;SDS011;19470;49.322;7.218;2023-12-20T01:36:04;11.75;;;8.07;;
18274;SDS011;19470;49.322;7.218;2023-12-20T01:38:31;11.93;;;7.80;;
18274;SDS011;19470;49.322;7.218;2023-12-20T01:40:58;11.98;;;7.75;;
18274;SDS011;19470;49.322;7.218;2023-12-20T01:43:24;11.90;;;8.07;;
18274;SDS011;19470;49.322;7.218;2023-12-20T01:45:51;12.90;;;7.97;;
18274;SDS011;19470;49.322;7.218;2023-12-20T01:48:18;12.70;;;8.63;;
18274;SDS011;19470;49.322;7.218;2023-12-20T01:50:47;14.18;;;8.18;;
18274;SDS011;19470;49.322;7.218;2023-12-20T01:53:14;12.70;;;8.05;;
18274;SDS011;19470;49.322;7.218;2023-12-20T01:55:42;13.07;;;9.05;;
18274;SDS011;19470;49.322;7.218;2023-12-20T01:58:09;11.38;;;7.43;;
18274;SDS011;19470;49.322;7.218;2023-12-20T02:00:37;13.40;;;7.82;;
18274;SDS011;19470;49.322;7.218;2023-12-20T02:03:03;14.10;;;8.68;;
18274;SDS011;19470;49.322;7.218;2023-12-20T02:05:31;12.90;;;7.90;;
18274;SDS011;19470;49.322;7.218;2023-12-20T02:08:00;13.82;;;8.55;;
18274;SDS011;19470;49.322;7.218;2023-12-20T02:10:26;11.95;;;8.07;;
18274;SDS011;19470;49.322;7.218;2023-12-20T02:12:54;13.73;;;8.35;;
18274;SDS011;19470;49.322;7.218;2023-12-20T02:15:22;14.50;;;8.63;;
18274;SDS011;19470;49.322;7.218;2023-12-20T02:17:49;13.48;;;8.43;;
18274;SDS011;19470;49.322;7.218;2023-12-20T02:20:16;13.60;;;8.82;;
18274;SDS011;19470;49.322;7.218;2023-12-20T02:22:44;12.45;;;8.32;;
18274;SDS011;19470;49.322;7.218;2023-12-20T02:25:10;13.52;;;8.88;;
18274;SDS011;19470;49.322;7.218;2023-12-20T02:27:37;14.00;;;8.55;;
18274;SDS011;19470;49.322;7.218;2023-12-20T02:30:05;16.13;;;9.23;;
18274;SDS011;19470;49.322;7.218;2023-12-20T02:32:32;12.32;;;8.73;;
18274;SDS011;19470;49.322;7.218;2023-12-20T02:34:59;15.20;;;9.27;;
18274;SDS011;19470;49.322;7.218;2023-12-20T02:37:25;14.07;;;9.98;;
18274;SDS011;19470;49.322;7.218;2023-12-20T02:39:53;14.38;;;9.23;;
18274;SDS011;19470;49.322;7.218;2023-12-20T02:42:20;12.52;;;8.50;;
18274;SDS011;19470;49.322;7.218;2023-12-20T02:44:46;13.85;;;9.15;;
18274;SDS011;19470;49.322;7.218;2023-12-20T02:47:12;14.55;;;8.60;;
18274;SDS011;19470;49.322;7.218;2023-12-20T02:49:39;12.75;;;9.07;;
18274;SDS011;19470;49.322;7.218;2023-12-20T02:52:06;15.82;;;9.63;;
18274;SDS011;19470;49.322;7.218;2023-12-20T02:54:32;15.63;;;9.90;;
18274;SDS011;19470;49.322;7.218;2023-12-20T02:57:00;14.50;;;9.63;;
18274;SDS011;19470;49.322;7.218;2023-12-20T02:59:27;14.43;;;8.98;;
18274;SDS011;19470;49.322;7.218;2023-12-20T03:01:53;13.57;;;8.90;;
18274;SDS011;19470;49.322;7.218;2023-12-20T03:04:20;14.88;;;9.90;;
18274;SDS011;19470;49.322;7.218;2023-12-20T03:06:46;15.55;;;9.85;;
18274;SDS011;19470;49.322;7.218;2023-12-20T03:09:13;16.27;;;9.85;;
18274;SDS011;19470;49.322;7.218;2023-12-20T03:11:39;15.10;;;9.65;;
18274;SDS011;19470;49.322;7.218;2023-12-20T03:14:07;15.20;;;9.82;;
18274;SDS011;19470;49.322;7.218;2023-12-20T03:16:33;17.70;;;10.57;;
18274;SDS011;19470;49.322;7.218;2023-12-20T03:19:00;16.48;;;10.50;;
18274;SDS011;19470;49.322;7.218;2023-12-20T03:21:27;16.17;;;9.75;;
18274;SDS011;19470;49.322;7.218;2023-12-20T03:23:53;18.77;;;10.57;;
18274;SDS011;19470;49.322;7.218;2023-12-20T03:26:20;17.25;;;10.60;;
18274;SDS011;19470;49.322;7.218;2023-12-20T03:28:47;19.20;;;11.95;;
18274;SDS011;19470;49.322;7.218;2023-12-20T03:31:15;17.10;;;11.10;;
18274;SDS011;19470;49.322;7.218;2023-12-20T03:33:41;20.20;;;11.85;;
18274;SDS011;19470;49.322;7.218;2023-12-20T03:36:08;17.50;;;11.05;;
18274;SDS011;19470;49.322;7.218;2023-12-20T03:38:34;21.80;;;12.00;;
18274;SDS011;19470;49.322;7.218;2023-12-20T03:41:01;17.38;;;11.52;;
18274;SDS011;19470;49.322;7.218;2023-12-20T03:43:27;18.55;;;11.75;;
18274;SDS011;19470;49.322;7.218;2023-12-20T03:45:54;19.85;;;11.38;;
18274;SDS011;19470;49.322;7.218;2023-12-20T03:48:22;17.88;;;11.48;;
18274;SDS011;19470;49.322;7.218;2023-12-20T03:50:48;15.70;;;9.77;;
18274;SDS011;19470;49.322;7.218;2023-12-20T03:53:15;16.35;;;10.57;;
18274;SDS011;19470;49.322;7.218;2023-12-20T03:55:41;14.38;;;9.63;;
18274;SDS011;19470;49.322;7.218;2023-12-20T03:58:08;15.02;;;10.45;;
18274;SDS011;19470;49.322;7.218;2023-12-20T04:00:34;14.93;;;10.18;;
18274;SDS011;19470;49.322;7.218;2023-12-20T04:03:01;16.05;;;10.48;;
18274;SDS011;19470;49.322;7.218;2023-12-20T04:05:28;14.73;;;10.02;;
18274;SDS011;19470;49.322;7.218;2023-12-20T04:07:55;16.40;;;10.63;;
18274;SDS011;19470;49.322;7.218;2023-12-20T04:10:21;16.35;;;10.48;;
18274;SDS011;19470;49.322;7.218;2023-12-20T04:12:48;13.05;;;9.30;;
18274;SDS011;19470;49.322;7.218;2023-12-20T04:15:14;12.65;;;9.23;;
18274;SDS011;19470;49.322;7.218;2023-12-20T04:17:41;14.80;;;9.75;;
18274;SDS011;19470;49.322;7.218;2023-12-20T04:20:07;14.40;;;9.85;;
18274;SDS011;19470;49.322;7.218;2023-12-20T04:22:36;12.27;;;8.57;;
18274;SDS011;19470;49.322;7.218;2023-12-20T04:25:02;14.20;;;8.80;;
18274;SDS011;19470;49.322;7.218;2023-12-20T04:27:29;14.27;;;9.45;;
18274;SDS011;19470;49.322;7.218;2023-12-20T04:29:55;13.43;;;8.88;;
18274;SDS011;19470;49.322;7.218;2023-12-20T04:32:22;10.68;;;7.40;;
18274;SDS011;19470;49.322;7.218;2023-12-20T04:34:49;10.43;;;6.72;;
18274;SDS011;19470;49.322;7.218;2023-12-20T04:37:15;8.88;;;6.55;;
18274;SDS011;19470;49.322;7.218;2023-12-20T04:39:43;7.40;;;4.90;;
18274;SDS011;19470;49.322;7.218;2023-12-20T04:42:10;4.65;;;3.33;;
18274;SDS011;19470;49.322;7.218;2023-12-20T04:44:36;5.32;;;4.10;;
18274;SDS011;19470;49.322;7.218;2023-12-20T04:47:03;5.28;;;3.67;;
18274;SDS011;19470;49.322;7.218;2023-12-20T04:49:30;6.80;;;3.60;;
18274;SDS011;19470;49.322;7.218;2023-12-20T04:51:56;6.53;;;3.70;;
18274;SDS011;19470;49.322;7.218;2023-12-20T04:54:22;5.50;;;2.83;;
18274;SDS011;19470;49.322;7.218;2023-12-20T04:56:50;4.53;;;3.25;;
18274;SDS011;19470;49.322;7.218;2023-12-20T04:59:17;3.78;;;2.60;;
18274;SDS011;19470;49.322;7.218;2023-12-20T05:01:43;4.30;;;2.30;;
18274;SDS011;19470;49.322;7.218;2023-12-20T05:04:10;4.28;;;2.47;;
18274;SDS011;19470;49.322;7.218;2023-12-20T05:06:38;3.50;;;2.47;;
18274;SDS011;19470;49.322;7.218;2023-12-20T05:09:04;6.32;;;2.47;;
18274;SDS011;19470;49.322;7.218;2023-12-20T05:11:31;3.22;;;2.53;;
18274;SDS011;19470;49.322;7.218;2023-12-20T05:13:59;3.72;;;2.92;;
18274;SDS011;19470;49.322;7.218;2023-12-20T05:16:25;7.93;;;3.92;;
18274;SDS011;19470;49.322;7.218;2023-12-20T05:18:52;6.05;;;4.30;;
18274;SDS011;19470;49.322;7.218;2023-12-20T05:21:18;7.68;;;4.32;;
18274;SDS011;19470;49.322;7.218;2023-12-20T05:23:45;6.93;;;3.78;;
18274;SDS011;19470;49.322;7.218;2023-12-20T05:26:11;7.47;;;4.43;;
18274;SDS011;19470;49.322;7.218;2023-12-20T05:28:38;16.52;;;7.78;;
18274;SDS011;19470;49.322;7.218;2023-12-20T05:31:06;6.38;;;3.88;;
18274;SDS011;19470;49.322;7.218;2023-12-20T05:33:32;5.20;;;3.05;;
18274;SDS011;19470;49.322;7.218;2023-12-20T05:35:59;6.85;;;3.05;;
18274;SDS011;19470;49.322;7.218;2023-12-20T05:38:25;12.93;;;5.47;;
18274;SDS011;19470;49.322;7.218;2023-12-20T05:40:52;8.73;;;2.25;;
18274;SDS011;19470;49.322;7.218;2023-12-20T05:43:19;6.80;;;2.22;;
18274;SDS011;19470;49.322;7.218;2023-12-20T05:45:45;6.05;;;2.00;;
18274;SDS011;19470;49.322;7.218;2023-12-20T05:48:13;5.93;;;1.98;;
18274;SDS011;19470;49.322;7.218;2023-12-20T05:50:39;3.25;;;2.17;;
18274;SDS011;19470;49.322;7.218;2023-12-20T05:53:06;5.75;;;2.30;;
18274;SDS011;19470;49.322;7.218;2023-12-20T05:55:32;12.40;;;2.35;;
18274;SDS011;19470;49.322;7.218;2023-12-20T05:57:59;6.18;;;2.10;;
18274;SDS011;19470;49.322;7.218;2023-12-20T06:00:25;2.83;;;1.70;;
18274;SDS011;19470;49.322;7.218;2023-12-20T06:02:52;9.73;;;3.03;;
18274;SDS011;19470;49.322;7.218;2023-12-20T06:05:20;4.65;;;2.28;;
18274;SDS011;19470;49.322;7.218;2023-12-20T06:07:46;7.70;;;2.20;;
18274;SDS011;19470;49.322;7.218;2023-12-20T06:10:15;5.80;;;2.30;;
18274;SDS011;19470;49.322;7.218;2023-12-20T06:12:42;4.68;;;2.15;;
18274;SDS011;19470;49.322;7.218;2023-12-20T06:15:09;4.63;;;2.40;;
18274;SDS011;19470;49.322;7.218;2023-12-20T06:17:35;7.93;;;2.78;;
18274;SDS011;19470;49.322;7.218;2023-12-20T06:20:03;10.60;;;2.50;;
18274;SDS011;19470;49.322;7.218;2023-12-20T06:22:34;5.57;;;2.63;;
18274;SDS011;19470;49.322;7.218;2023-12-20T06:25:00;7.78;;;2.25;;
18274;SDS011;19470;49.322;7.218;2023-12-20T06:27:27;3.10;;;1.98;;
18274;SDS011;19470;49.322;7.218;2023-12-20T06:29:53;8.43;;;2.65;;
18274;SDS011;19470;49.322;7.218;2023-12-20T06:32:19;6.22;;;2.60;;
18274;SDS011;19470;49.322;7.218;2023-12-20T06:34:48;11.43;;;3.03;;
18274;SDS011;19470;49.322;7.218;2023-12-20T06:37:15;6.57;;;2.55;;
18274;SDS011;19470;49.322;7.218;2023-12-20T06:39:42;7.65;;;2.75;;
18274;SDS011;19470;49.322;7.218;2023-12-20T06:42:09;5.90;;;2.67;;
18274;SDS011;19470;49.322;7.218;2023-12-20T06:44:36;7.70;;;2.50;;
18274;SDS011;19470;49.322;7.218;2023-12-20T06:47:02;5.88;;;2.92;;
18274;SDS011;19470;49.322;7.218;2023-12-20T06:49:29;9.73;;;2.60;;
18274;SDS011;19470;49.322;7.218;2023-12-20T06:51:55;10.95;;;3.13;;
18274;SDS011;19470;49.322;7.218;2023-12-20T06:54:22;6.90;;;2.95;;
18274;SDS011;19470;49.322;7.218;2023-12-20T06:56:50;7.55;;;3.00;;
18274;SDS011;19470;49.322;7.218;2023-12-20T06:59:16;9.68;;;3.70;;
18274;SDS011;19470;49.322;7.218;2023-12-20T07:01:47;10.82;;;3.05;;
18274;SDS011;19470;49.322;7.218;2023-12-20T07:04:14;11.75;;;3.50;;
18274;SDS011;19470;49.322;7.218;2023-12-20T07:06:40;14.18;;;3.55;;
18274;SDS011;19470;49.322;7.218;2023-12-20T07:09:06;12.30;;;4.50;;
18274;SDS011;19470;49.322;7.218;2023-12-20T07:11:33;10.70;;;3.85;;
18274;SDS011;19470;49.322;7.218;2023-12-20T07:14:01;8.55;;;3.13;;
18274;SDS011;19470;49.322;7.218;2023-12-20T07:16:27;14.00;;;4.82;;
18274;SDS011;19470;49.322;7.218;2023-12-20T07:18:54;7.15;;;2.95;;
18274;SDS011;19470;49.322;7.218;2023-12-20T07:21:22;8.38;;;3.20;;
18274;SDS011;19470;49.322;7.218;2023-12-20T07:23:48;11.23;;;3.00;;
18274;SDS011;19470;49.322;7.218;2023-12-20T07:26:15;9.73;;;2.72;;
18274;SDS011;19470;49.322;7.218;2023-12-20T07:28:41;8.27;;;3.08;;
18274;SDS011;19470;49.322;7.218;2023-12-20T07:31:09;10.48;;;2.80;;
18274;SDS011;19470;49.322;7.218;2023-12-20T07:33:36;5.72;;;2.17;;
18274;SDS011;19470;49.322;7.218;2023-12-20T07:36:02;10.63;;;2.38;;
18274;SDS011;19470;49.322;7.218;2023-12-20T07:38:29;7.57;;;2.28;;
18274;SDS011;19470;49.322;7.218;2023-12-20T07:40:55;16.55;;;3.38;;
18274;SDS011;19470;49.322;7.218;2023-12-20T07:43:22;7.82;;;2.20;;
18274;SDS011;19470;49.322;7.218;2023-12-20T07:45:48;7.35;;;2.45;;
18274;SDS011;19470;49.322;7.218;2023-12-20T07:48:16;3.22;;;2.25;;
18274;SDS011;19470;49.322;7.218;2023-12-20T07:50:43;7.10;;;2.28;;
18274;SDS011;19470;49.322;7.218;2023-12-20T07:53:09;5.38;;;2.25;;
18274;SDS011;19470;49.322;7.218;2023-12-20T07:55:36;11.45;;;3.10;;
18274;SDS011;19470;49.322;7.218;2023-12-20T07:58:02;7.40;;;2.50;;
18274;SDS011;19470;49.322;7.218;2023-12-20T08:00:30;8.68;;;2.70;;
18274;SDS011;19470;49.322;7.218;2023-12-20T08:02:56;12.73;;;3.17;;
18274;SDS011;19470;49.322;7.218;2023-12-20T08:05:24;13.77;;;3.08;;
18274;SDS011;19470;49.322;7.218;2023-12-20T08:07:50;9.80;;;2.85;;
18274;SDS011;19470;49.322;7.218;2023-12-20T08:10:23;8.35;;;3.20;;
18274;SDS011;19470;49.322;7.218;2023-12-20T08:12:50;5.45;;;2.95;;
18274;SDS011;19470;49.322;7.218;2023-12-20T08:15:16;7.10;;;2.70;;
18274;SDS011;19470;49.322;7.218;2023-12-20T08:17:43;12.07;;;3.63;;
18274;SDS011;19470;49.322;7.218;2023-12-20T08:20:10;11.80;;;3.25;;
18274;SDS011;19470;49.322;7.218;2023-12-20T08:22:38;5.40;;;3.00;;
18274;SDS011;19470;49.322;7.218;2023-12-20T08:25:05;13.70;;;4.78;;
18274;SDS011;19470;49.322;7.218;2023-12-20T08:27:31;11.52;;;3.40;;
18274;SDS011;19470;49.322;7.218;2023-12-20T08:29:58;9.77;;;3.30;;
18274;SDS011;19470;49.322;7.218;2023-12-20T08:32:25;15.00;;;3.28;;
18274;SDS011;19470;49.322;7.218;2023-12-20T08:34:52;5.88;;;2.70;;
18274;SDS011;19470;49.322;7.218;2023-12-20T08:37:18;11.90;;;3.38;;
18274;SDS011;19470;49.322;7.218;2023-12-20T08:39:46;8.73;;;2.83;;
18274;SDS011;19470;49.322;7.218;2023-12-20T08:42:12;11.57;;;2.90;;
18274;SDS011;19470;49.322;7.218;2023-12-20T08:44:39;9.13;;;3.40;;
18274;SDS011;19470;49.322;7.218;2023-12-20T08:47:05;10.38;;;2.83;;
18274;SDS011;19470;49.322;7.218;2023-12-20T08:49:32;8.95;;;3.00;;
18274;SDS011;19470;49.322;7.218;2023-12-20T08:51:58;10.40;;;3.50;;
18274;SDS011;19470;49.322;7.218;2023-12-20T08:54:25;11.70;;;3.40;;
18274;SDS011;19470;49.322;7.218;2023-12-20T08:56:53;9.10;;;3.50;;
18274;SDS011;19470;49.322;7.218;2023-12-20T08:59:19;11.15;;;3.05;;
18274;SDS011;19470;49.322;7.218;2023-12-20T09:01:46;13.55;;;3.38;;
18274;SDS011;19470;49.322;7.218;2023-12-20T09:04:13;7.43;;;3.33;;
18274;SDS011;19470;49.322;7.218;2023-12-20T09:06:40;15.63;;;3.50;;
18274;SDS011;19470;49.322;7.218;2023-12-20T09:09:06;11.55;;;3.75;;
18274;SDS011;19470;49.322;7.218;2023-12-20T09:11:35;11.93;;;4.15;;
18274;SDS011;19470;49.322;7.218;2023-12-20T09:14:03;9.80;;;3.78;;
18274;SDS011;19470;49.322;7.218;2023-12-20T09:16:29;9.82;;;2.75;;
18274;SDS011;19470;49.322;7.218;2023-12-20T09:18:56;9.30;;;2.70;;
18274;SDS011;19470;49.322;7.218;2023-12-20T09:21:23;10.68;;;3.33;;
18274;SDS011;19470;49.322;7.218;2023-12-20T09:23:49;15.57;;;3.78;;
18274;SDS011;19470;49.322;7.218;2023-12-20T09:26:16;9.77;;;2.97;;
18274;SDS011;19470;49.322;7.218;2023-12-20T09:28:42;9.98;;;3.10;;
18274;SDS011;19470;49.322;7.218;2023-12-20T09:31:11;15.98;;;3.70;;
18274;SDS011;19470;49.322;7.218;2023-12-20T09:33:37;9.20;;;3.28;;
18274;SDS011;19470;49.322;7.218;2023-12-20T09:36:04;8.60;;;3.03;;
18274;SDS011;19470;49.322;7.218;2023-12-20T09:38:31;10.80;;;3.63;;
18274;SDS011;19470;49.322;7.218;2023-12-20T09:40:58;9.48;;;3.20;;
18274;SDS011;19470;49.322;7.218;2023-12-20T09:43:26;13.85;;;3.88;;
18274;SDS011;19470;49.322;7.218;2023-12-20T09:45:54;12.88;;;3.38;;
18274;SDS011;19470;49.322;7.218;2023-12-20T09:48:28;20.80;;;4.35;;
18274;SDS011;19470;49.322;7.218;2023-12-20T09:50:56;11.02;;;3.45;;
18274;SDS011;19470;49.322;7.218;2023-12-20T09:53:23;8.95;;;3.72;;
18274;SDS011;19470;49.322;7.218;2023-12-20T09:55:54;12.85;;;3.85;;
18274;SDS011;19470;49.322;7.218;2023-12-20T09:58:24;8.70;;;3.65;;
18274;SDS011;19470;49.322;7.218;2023-12-20T10:00:50;11.82;;;3.95;;
18274;SDS011;19470;49.322;7.218;2023-12-20T10:03:19;4.68;;;2.42;;
18274;SDS011;19470;49.322;7.218;2023-12-20T10:05:52;12.18;;;4.25;;
18274;SDS011;19470;49.322;7.218;2023-12-20T10:08:22;12.80;;;4.18;;
18274;SDS011;19470;49.322;7.218;2023-12-20T10:10:51;12.70;;;4.32;;
18274;SDS011;19470;49.322;7.218;2023-12-20T10:13:18;11.88;;;3.80;;
18274;SDS011;19470;49.322;7.218;2023-12-20T10:15:44;9.68;;;3.53;;
18274;SDS011;19470;49.322;7.218;2023-12-20T10:18:11;8.18;;;3.63;;
18274;SDS011;19470;49.322;7.218;2023-12-20T10:20:39;16.48;;;3.70;;
18274;SDS011;19470;49.322;7.218;2023-12-20T10:23:08;9.85;;;3.67;;
18274;SDS011;19470;49.322;7.218;2023-12-20T10:25:35;11.13;;;2.88;;
18274;SDS011;19470;49.322;7.218;2023-12-20T10:28:11;9.65;;;2.97;;
18274;SDS011;19470;49.322;7.218;2023-12-20T10:30:39;13.15;;;2.75;;
18274;SDS011;19470;49.322;7.218;2023-12-20T10:33:06;11.38;;;2.78;;
18274;SDS011;19470;49.322;7.218;2023-12-20T10:35:33;6.38;;;3.13;;
18274;SDS011;19470;49.322;7.218;2023-12-20T10:38:02;9.32;;;2.95;;
18274;SDS011;19470;49.322;7.218;2023-12-20T10:40:31;9.93;;;3.47;;
18274;SDS011;19470;49.322;7.218;2023-12-20T10:43:01;13.70;;;3.17;;
18274;SDS011;19470;49.322;7.218;2023-12-20T10:45:28;8.02;;;2.70;;
18274;SDS011;19470;49.322;7.218;2023-12-20T10:47:55;11.25;;;2.80;;
18274;SDS011;19470;49.322;7.218;2023-12-20T10:50:22;13.82;;;4.38;;
18274;SDS011;19470;49.322;7.218;2023-12-20T10:52:49;11.32;;;3.25;;
18274;SDS011;19470;49.322;7.218;2023-12-20T10:55:20;8.60;;;2.28;;
18274;SDS011;19470;49.322;7.218;2023-12-20T10:57:48;12.02;;;3.03;;
18274;SDS011;19470;49.322;7.218;2023-12-20T11:00:16;9.18;;;2.92;;
18274;SDS011;19470;49.322;7.218;2023-12-20T11:02:44;11.02;;;2.95;;
18274;SDS011;19470;49.322;7.218;2023-12-20T11:05:13;9.70;;;3.42;;
18274;SDS011;19470;49.322;7.218;2023-12-20T11:07:50;6.72;;;2.67;;
18274;SDS011;19470;49.322;7.218;2023-12-20T11:10:23;7.70;;;2.70;;
18274;SDS011;19470;49.322;7.218;2023-12-20T11:12:59;10.75;;;3.13;;
18274;SDS011;19470;49.322;7.218;2023-12-20T11:15:34;14.35;;;2.95;;
18274;SDS011;19470;49.322;7.218;2023-12-20T11:18:01;9.45;;;2.95;;
18274;SDS011;19470;49.322;7.218;2023-12-20T11:20:34;11.95;;;3.00;;
18274;SDS011;19470;49.322;7.218;2023-12-20T11:23:03;13.63;;;2.83;;
18274;SDS011;19470;49.322;7.218;2023-12-20T11:25:51;12.07;;;2.90;;
18274;SDS011;19470;49.322;7.218;2023-12-20T11:28:20;12.20;;;2.85;;
18274;SDS011;19470;49.322;7.218;2023-12-20T11:30:48;6.13;;;2.22;;
18274;SDS011;19470;49.322;7.218;2023-12-20T11:33:16;7.57;;;2.35;;
18274;SDS011;19470;49.322;7.218;2023-12-20T11:35:48;8.05;;;2.60;;
18274;SDS011;19470;49.322;7.218;2023-12-20T11:38:14;7.43;;;1.65;;
18274;SDS011;19470;49.322;7.218;2023-12-20T11:40:41;13.30;;;2.92;;
18274;SDS011;19470;49.322;7.218;2023-12-20T11:43:10;9.20;;;2.78;;
18274;SDS011;19470;49.322;7.218;2023-12-20T11:45:36;11.90;;;2.67;;
18274;SDS011;19470;49.322;7.218;2023-12-20T11:48:03;6.60;;;2.50;;
18274;SDS011;19470;49.322;7.218;2023-12-20T11:50:32;9.00;;;2.67;;
18274;SDS011;19470;49.322;7.218;2023-12-20T11:52:58;17.70;;;2.88;;
18274;SDS011;19470;49.322;7.218;2023-12-20T11:55:25;62.67;;;10.80;;
18274;SDS011;19470;49.322;7.218;2023-12-20T11:57:51;7.53;;;2.05;;
18274;SDS011;19470;49.322;7.218;2023-12-20T12:00:20;10.38;;;2.30;;
18274;SDS011;19470;49.322;7.218;2023-12-20T12:02:59;5.18;;;2.40;;
18274;SDS011;19470;49.322;7.218;2023-12-20T12:05:27;8.23;;;2.30;;
18274;SDS011;19470;49.322;7.218;2023-12-20T12:07:54;5.20;;;2.15;;
18274;SDS011;19470;49.322;7.218;2023-12-20T12:10:21;16.23;;;2.67;;
18274;SDS011;19470;49.322;7.218;2023-12-20T12:12:47;13.60;;;2.85;;
18274;SDS011;19470;49.322;7.218;2023-12-20T12:15:14;11.82;;;2.40;;
18274;SDS011;19470;49.322;7.218;2023-12-20T12:17:42;7.72;;;2.17;;
18274;SDS011;19470;49.322;7.218;2023-12-20T12:20:09;7.10;;;1.90;;
18274;SDS011;19470;49.322;7.218;2023-12-20T12:22:36;7.32;;;2.40;;
18274;SDS011;19470;49.322;7.218;2023-12-20T12:25:09;5.72;;;1.92;;
18274;SDS011;19470;49.322;7.218;2023-12-20T12:27:37;11.38;;;3.47;;
18274;SDS011;19470;49.322;7.218;2023-12-20T12:30:05;13.90;;;3.05;;
18274;SDS011;19470;49.322;7.218;2023-12-20T12:32:33;9.57;;;2.38;;
18274;SDS011;19470;49.322;7.218;2023-12-20T12:35:02;6.47;;;1.95;;
18274;SDS011;19470;49.322;7.218;2023-12-20T12:37:29;7.18;;;2.20;;
18274;SDS011;19470;49.322;7.218;2023-12-20T12:39:56;7.13;;;2.85;;
18274;SDS011;19470;49.322;7.218;2023-12-20T12:42:23;10.82;;;3.03;;
18274;SDS011;19470;49.322;7.218;2023-12-20T12:44:53;10.13;;;2.92;;
18274;SDS011;19470;49.322;7.218;2023-12-20T12:47:20;12.25;;;1.85;;
18274;SDS011;19470;49.322;7.218;2023-12-20T12:49:46;11.27;;;2.47;;
18274;SDS011;19470;49.322;7.218;2023-12-20T12:52:15;9.20;;;2.42;;
18274;SDS011;19470;49.322;7.218;2023-12-20T12:54:40;14.27;;;2.92;;
18274;SDS011;19470;49.322;7.218;2023-12-20T12:57:07;9.25;;;3.67;;
18274;SDS011;19470;49.322;7.218;2023-12-20T12:59:34;11.32;;;2.97;;
18274;SDS011;19470;49.322;7.218;2023-12-20T13:02:01;6.55;;;1.98;;
18274;SDS011;19470;49.322;7.218;2023-12-20T13:04:27;14.55;;;3.03;;
18274;SDS011;19470;49.322;7.218;2023-12-20T13:06:54;10.27;;;2.60;;
18274;SDS011;19470;49.322;7.218;2023-12-20T13:09:23;7.70;;;2.67;;
18274;SDS011;19470;49.322;7.218;2023-12-20T13:11:50;13.52;;;2.13;;
18274;SDS011;19470;49.322;7.218;2023-12-20T13:14:16;12.45;;;2.95;;
18274;SDS011;19470;49.322;7.218;2023-12-20T13:16:43;11.20;;;2.55;;
18274;SDS011;19470;49.322;7.218;2023-12-20T13:19:10;7.22;;;2.00;;
18274;SDS011;19470;49.322;7.218;2023-12-20T13:21:37;12.82;;;2.45;;
18274;SDS011;19470;49.322;7.218;2023-12-20T13:24:05;9.43;;;2.28;;
18274;SDS011;19470;49.322;7.218;2023-12-20T13:26:33;12.27;;;3.78;;
18274;SDS011;19470;49.322;7.218;2023-12-20T13:28:59;14.95;;;2.30;;
18274;SDS011;19470;49.322;7.218;2023-12-20T13:31:26;12.95;;;3.08;;
18274;SDS011;19470;49.322;7.218;2023-12-20T13:33:53;15.25;;;3.03;;
18274;SDS011;19470;49.322;7.218;2023-12-20T13:36:19;7.63;;;2.85;;
18274;SDS011;19470;49.322;7.218;2023-12-20T13:38:46;12.75;;;2.40;;
18274;SDS011;19470;49.322;7.218;2023-12-20T13:41:13;8.55;;;2.20;;
18274;SDS011;19470;49.322;7.218;2023-12-20T13:43:40;9.90;;;2.50;;
18274;SDS011;19470;49.322;7.218;2023-12-20T13:46:07;16.52;;;2.72;;
18274;SDS011;19470;49.322;7.218;2023-12-20T13:48:34;10.18;;;2.90;;
18274;SDS011;19470;49.322;7.218;2023-12-20T13:51:01;10.95;;;3.00;;
18274;SDS011;19470;49.322;7.218;2023-12-20T13:53:27;11.77;;;2.67;;
18274;SDS011;19470;49.322;7.218;2023-12-20T13:55:54;14.98;;;2.72;;
18274;SDS011;19470;49.322;7.218;2023-12-20T13:58:21;14.40;;;3.75;;
18274;SDS011;19470;49.322;7.218;2023-12-20T14:00:49;7.65;;;2.65;;
18274;SDS011;19470;49.322;7.218;2023-12-20T14:03:15;13.00;;;2.95;;
18274;SDS011;19470;49.322;7.218;2023-12-20T14:05:42;10.43;;;2.65;;
18274;SDS011;19470;49.322;7.218;2023-12-20T14:08:08;13.32;;;2.90;;
18274;SDS011;19470;49.322;7.218;2023-12-20T14:10:35;13.38;;;3.08;;
18274;SDS011;19470;49.322;7.218;2023-12-20T14:13:01;12.40;;;2.22;;
18274;SDS011;19470;49.322;7.218;2023-12-20T14:15:28;10.18;;;2.72;;
18274;SDS011;19470;49.322;7.218;2023-12-20T14:17:56;18.48;;;3.05;;
18274;SDS011;19470;49.322;7.218;2023-12-20T14:20:23;10.85;;;2.53;;
18274;SDS011;19470;49.322;7.218;2023-12-20T14:22:49;13.35;;;2.97;;
18274;SDS011;19470;49.322;7.218;2023-12-20T14:25:16;10.13;;;3.03;;
18274;SDS011;19470;49.322;7.218;2023-12-20T14:27:42;10.68;;;2.88;;
18274;SDS011;19470;49.322;7.218;2023-12-20T14:30:09;11.35;;;2.30;;
18274;SDS011;19470;49.322;7.218;2023-12-20T14:32:39;13.98;;;2.72;;
18274;SDS011;19470;49.322;7.218;2023-12-20T14:35:07;9.88;;;2.72;;
18274;SDS011;19470;49.322;7.218;2023-12-20T14:37:34;13.55;;;3.20;;